createdAt,value
2022-10-19T00:01:01.957Z,49.25
2022-10-19T00:03:29.232Z,42.45
2022-10-19T00:05:56.359Z,41.42
2022-10-19T00:08:23.419Z,12.57
2022-10-19T00:10:50.514Z,22.77
2022-10-19T00:13:17.671Z,18.45
2022-10-19T00:15:45.250Z,17.33
2022-10-19T00:18:12.322Z,24.33
2022-10-19T00:20:39.396Z,17.90
2022-10-19T00:23:06.465Z,21.77
2022-10-19T00:25:33.538Z,39.03
2022-10-19T00:28:01.116Z,23.88
2022-10-19T00:30:28.169Z,23.55
2022-10-19T00:32:55.318Z,25.25
2022-10-19T00:35:22.472Z,29.15
2022-10-19T00:37:49.544Z,29.60
2022-10-19T00:40:16.627Z,26.05
2022-10-19T00:42:43.706Z,24.95
2022-10-19T00:45:13.717Z,26.65
2022-10-19T00:47:41.379Z,20.17
2022-10-19T00:50:08.957Z,25.33
2022-10-19T00:52:36.513Z,24.67
2022-10-19T00:55:03.906Z,24.10
2022-10-19T00:57:32.225Z,23.10
2022-10-19T01:00:00.247Z,21.77
2022-10-19T01:02:27.507Z,25.27
2022-10-19T01:04:54.714Z,30.63
2022-10-19T01:07:22.174Z,25.77
2022-10-19T01:09:49.227Z,27.35
2022-10-19T01:12:19.091Z,25.52
2022-10-19T01:14:55.543Z,25.55
2022-10-19T01:17:41.441Z,25.15
2022-10-19T01:20:23.949Z,26.42
2022-10-19T01:23:10.821Z,32.35
2022-10-19T01:25:56.127Z,35.03
2022-10-19T01:28:41.958Z,35.42
2022-10-19T01:31:25.250Z,49.80
2022-10-19T01:33:59.929Z,35.00
2022-10-19T01:36:39.626Z,32.58
2022-10-19T01:39:18.791Z,28.90
2022-10-19T01:41:45.883Z,33.00
2022-10-19T01:44:12.917Z,31.52
2022-10-19T01:46:41.676Z,34.03
2022-10-19T01:49:19.826Z,32.75
2022-10-19T01:51:50.217Z,25.13
2022-10-19T01:54:18.622Z,26.63
2022-10-19T01:56:47.777Z,26.92
2022-10-19T01:59:16.048Z,23.80
2022-10-19T02:01:45.255Z,21.63
2022-10-19T02:04:14.678Z,22.05
2022-10-19T02:06:42.101Z,21.27
2022-10-19T02:09:09.261Z,24.63
2022-10-19T02:11:37.896Z,24.45
2022-10-19T02:14:06.822Z,22.20
2022-10-19T02:16:37.471Z,24.98
2022-10-19T02:19:06.247Z,20.15
2022-10-19T02:21:33.356Z,18.75
2022-10-19T02:24:00.470Z,16.63
2022-10-19T02:26:27.843Z,25.00
2022-10-19T02:28:55.818Z,20.83
2022-10-19T02:31:23.157Z,20.40
2022-10-19T02:33:50.271Z,18.88
2022-10-19T02:36:18.070Z,21.02
2022-10-19T02:38:45.298Z,21.25
2022-10-19T02:41:17.265Z,21.42
2022-10-19T02:43:47.807Z,16.58
2022-10-19T02:46:19.822Z,20.65
2022-10-19T02:48:47.391Z,20.38
2022-10-19T02:51:30.955Z,17.60
2022-10-19T02:53:59.927Z,19.52
2022-10-19T02:56:29.802Z,21.98
2022-10-19T02:58:56.920Z,23.40
2022-10-19T03:01:24.055Z,19.77
2022-10-19T03:03:51.137Z,22.15
2022-10-19T03:06:18.266Z,26.92
2022-10-19T03:08:45.355Z,26.55
2022-10-19T03:11:12.410Z,24.25
2022-10-19T03:13:39.514Z,20.27
2022-10-19T03:16:08.556Z,23.52
2022-10-19T03:18:35.680Z,22.15
2022-10-19T03:21:10.390Z,20.10
2022-10-19T03:23:37.879Z,25.85
2022-10-19T03:26:07.603Z,22.15
2022-10-19T03:28:37.160Z,21.60
2022-10-19T03:31:04.282Z,22.50
2022-10-19T03:33:31.382Z,26.25
2022-10-19T03:36:33.850Z,27.02
2022-10-19T03:39:02.758Z,39.10
2022-10-19T03:41:30.803Z,29.05
2022-10-19T03:43:58.303Z,34.88
2022-10-19T03:46:25.485Z,27.45
2022-10-19T03:48:52.856Z,29.33
2022-10-19T03:51:21.171Z,30.05
2022-10-19T03:53:48.352Z,28.20
2022-10-19T03:56:16.275Z,28.73
2022-10-19T03:58:44.377Z,27.40
2022-10-19T04:01:13.146Z,33.90
2022-10-19T04:03:40.536Z,32.45
2022-10-19T04:06:09.013Z,29.33
2022-10-19T04:08:36.509Z,32.63
2022-10-19T04:11:05.472Z,27.42
2022-10-19T04:13:33.621Z,29.55
2022-10-19T04:16:00.726Z,31.35
2022-10-19T04:18:27.815Z,28.83
2022-10-19T04:21:01.479Z,28.20
2022-10-19T04:23:29.598Z,29.95
2022-10-19T04:26:03.862Z,31.05
2022-10-19T04:28:31.009Z,29.95
2022-10-19T04:30:58.147Z,33.67
2022-10-19T04:33:25.227Z,33.13
2022-10-19T04:35:58.214Z,31.95
2022-10-19T04:38:25.391Z,30.10
2022-10-19T04:40:52.674Z,30.08
2022-10-19T04:43:19.775Z,31.05
2022-10-19T04:45:47.016Z,28.45
2022-10-19T04:48:15.152Z,28.65
2022-10-19T04:50:42.474Z,28.73
2022-10-19T04:53:09.639Z,29.13
2022-10-19T04:55:41.131Z,37.78
2022-10-19T04:58:08.278Z,28.92
2022-10-19T05:00:35.883Z,29.73
2022-10-19T05:03:03.020Z,31.23
2022-10-19T05:05:30.167Z,27.33
2022-10-19T05:07:57.231Z,30.27
2022-10-19T05:10:24.320Z,30.58
2022-10-19T05:12:51.380Z,28.17
2022-10-19T05:15:18.682Z,30.17
2022-10-19T05:17:45.775Z,28.42
2022-10-19T05:20:12.873Z,29.73
2022-10-19T05:22:40.268Z,29.42
2022-10-19T05:25:08.003Z,30.42
2022-10-19T05:27:35.400Z,33.63
2022-10-19T05:30:02.605Z,30.80
2022-10-19T05:32:44.236Z,29.23
2022-10-19T05:35:12.397Z,29.08
2022-10-19T05:37:39.514Z,30.23
2022-10-19T05:40:06.956Z,29.17
2022-10-19T05:42:34.035Z,29.05
2022-10-19T05:45:01.108Z,29.65
2022-10-19T05:47:30.280Z,38.38
2022-10-19T05:49:58.282Z,32.00
2022-10-19T05:52:25.350Z,37.75
2022-10-19T05:54:53.967Z,37.30
2022-10-19T05:57:21.063Z,36.47
2022-10-19T05:59:48.199Z,37.47
2022-10-19T06:02:15.291Z,37.10
2022-10-19T06:04:42.383Z,38.97
2022-10-19T06:07:09.481Z,43.58
2022-10-19T06:09:37.147Z,40.83
2022-10-19T06:12:04.319Z,41.65
2022-10-19T06:14:31.420Z,39.50
2022-10-19T06:16:58.495Z,38.13
2022-10-19T06:19:25.686Z,38.15
2022-10-19T06:21:52.745Z,41.17
2022-10-19T06:24:19.827Z,39.55
2022-10-19T06:26:46.996Z,37.88
2022-10-19T06:29:14.139Z,42.03
2022-10-19T06:31:41.299Z,41.30
2022-10-19T06:34:08.488Z,38.78
2022-10-19T06:36:35.667Z,44.60
2022-10-19T06:39:03.143Z,38.03
2022-10-19T06:41:31.199Z,43.35
2022-10-19T06:43:58.397Z,33.13
2022-10-19T06:46:26.306Z,36.35
2022-10-19T06:48:57.939Z,37.40
2022-10-19T06:51:26.061Z,41.30
2022-10-19T06:53:56.595Z,33.28
2022-10-19T06:56:24.658Z,35.95
2022-10-19T06:58:51.888Z,32.00
2022-10-19T07:01:19.215Z,35.60
2022-10-19T07:03:46.406Z,33.40
2022-10-19T07:06:13.838Z,33.90
2022-10-19T07:08:41.759Z,31.98
2022-10-19T07:11:10.145Z,32.15
2022-10-19T07:13:37.287Z,32.88
2022-10-19T07:16:06.760Z,31.63
2022-10-19T07:18:37.255Z,33.00
2022-10-19T07:21:05.980Z,31.48
2022-10-19T07:23:34.063Z,34.38
2022-10-19T07:26:05.283Z,31.40
2022-10-19T07:28:32.543Z,25.75
2022-10-19T07:30:59.675Z,26.50
2022-10-19T07:33:27.467Z,30.85
2022-10-19T07:35:59.549Z,27.10
2022-10-19T07:38:26.648Z,29.50
2022-10-19T07:41:00.377Z,28.30
2022-10-19T07:43:27.480Z,29.08
2022-10-19T07:46:08.597Z,29.50
2022-10-19T07:48:36.017Z,26.70
2022-10-19T07:51:04.483Z,21.17
2022-10-19T07:53:31.669Z,18.38
2022-10-19T07:56:08.870Z,20.60
2022-10-19T07:58:36.620Z,24.00
2022-10-19T08:01:04.468Z,19.13
2022-10-19T08:04:31.352Z,16.13
2022-10-19T08:06:21.842Z,16.80
2022-10-19T08:08:49.700Z,17.52
2022-10-19T08:11:21.318Z,12.93
2022-10-19T08:13:48.780Z,15.57
2022-10-19T08:16:40.242Z,13.43
2022-10-19T08:19:09.159Z,10.70
2022-10-19T08:21:36.937Z,10.95
2022-10-19T08:24:04.760Z,11.73
2022-10-19T08:26:33.497Z,9.32
2022-10-19T08:29:01.330Z,12.18
2022-10-19T08:31:28.472Z,12.88
2022-10-19T08:33:55.639Z,9.77
2022-10-19T08:36:23.014Z,10.27
2022-10-19T08:38:50.740Z,8.95
2022-10-19T08:41:43.905Z,9.25
2022-10-19T08:46:37.959Z,10.00
2022-10-19T08:49:05.073Z,7.70
2022-10-19T08:51:36.133Z,10.32
2022-10-19T08:54:04.839Z,8.68
2022-10-19T08:56:51.380Z,7.43
2022-10-19T08:59:31.191Z,8.25
2022-10-19T09:02:00.383Z,6.78
2022-10-19T09:04:42.354Z,7.25
2022-10-19T09:07:23.537Z,8.70
2022-10-19T09:10:15.749Z,8.70
2022-10-19T09:12:45.370Z,8.60
2022-10-19T09:15:14.265Z,8.27
2022-10-19T09:17:41.388Z,5.95
2022-10-19T09:20:16.418Z,5.95
2022-10-19T09:22:44.478Z,5.60
2022-10-19T09:25:20.270Z,8.20
2022-10-19T09:27:49.052Z,10.52
2022-10-19T09:30:20.618Z,6.00
2022-10-19T09:32:49.291Z,9.20
2022-10-19T09:35:16.344Z,7.32
2022-10-19T09:37:45.593Z,7.20
2022-10-19T09:40:18.326Z,11.10
2022-10-19T09:45:18.367Z,8.55
2022-10-19T09:47:47.326Z,6.30
2022-10-19T09:50:19.293Z,8.52
2022-10-19T09:52:50.334Z,6.47
2022-10-19T09:55:17.399Z,6.57
2022-10-19T09:57:45.572Z,10.15
2022-10-19T10:00:19.695Z,8.82
2022-10-19T10:02:53.991Z,9.65
2022-10-19T10:05:22.766Z,10.68
2022-10-19T10:07:55.271Z,7.43
2022-10-19T10:10:28.163Z,8.30
2022-10-19T10:12:59.056Z,8.40
2022-10-19T10:15:27.933Z,9.65
2022-10-19T10:17:56.191Z,8.95
2022-10-19T10:20:32.275Z,9.88
2022-10-19T10:23:03.351Z,9.07
2022-10-19T10:25:32.625Z,12.30
2022-10-19T10:28:04.524Z,9.75
2022-10-19T10:30:34.555Z,7.20
2022-10-19T10:33:09.375Z,9.95
2022-10-19T10:35:53.508Z,6.97
2022-10-19T10:38:23.258Z,6.60
2022-10-19T10:40:52.184Z,5.95
2022-10-19T10:43:22.047Z,6.85
2022-10-19T10:45:53.131Z,6.95
2022-10-19T10:48:31.206Z,7.72
2022-10-19T10:50:58.853Z,7.15
2022-10-19T10:53:29.041Z,6.97
2022-10-19T10:55:57.138Z,6.78
2022-10-19T10:58:39.563Z,6.43
2022-10-19T11:01:08.290Z,8.68
2022-10-19T11:03:35.896Z,7.65
2022-10-19T11:06:03.191Z,5.35
2022-10-19T11:09:00.059Z,7.22
2022-10-19T11:11:37.898Z,8.82
2022-10-19T11:14:23.442Z,8.65
2022-10-19T11:16:52.223Z,7.05
2022-10-19T11:19:27.306Z,12.40
2022-10-19T11:22:00.265Z,7.95
2022-10-19T11:24:27.341Z,8.75
2022-10-19T11:27:02.295Z,5.90
2022-10-19T11:29:32.185Z,9.68
2022-10-19T11:31:59.459Z,6.50
2022-10-19T11:34:44.931Z,9.30
2022-10-19T11:37:50.189Z,7.57
2022-10-19T11:40:54.155Z,8.60
2022-10-19T11:43:36.775Z,9.02
2022-10-19T11:46:10.147Z,4.90
2022-10-19T11:48:54.998Z,4.55
2022-10-19T11:51:34.251Z,6.80
2022-10-19T11:54:01.329Z,6.10
2022-10-19T11:56:44.727Z,6.43
2022-10-19T11:59:28.631Z,5.60
2022-10-19T12:02:14.528Z,5.88
2022-10-19T12:05:11.005Z,8.13
2022-10-19T12:07:38.182Z,5.55
2022-10-19T12:10:11.435Z,5.85
2022-10-19T12:12:43.786Z,4.32
2022-10-19T12:15:46.740Z,6.53
2022-10-19T12:18:34.062Z,4.32
2022-10-19T12:21:03.247Z,4.53
2022-10-19T12:23:31.154Z,7.03
2022-10-19T12:25:58.937Z,8.65
2022-10-19T12:28:29.577Z,4.20
2022-10-19T12:30:57.381Z,5.68
2022-10-19T12:33:28.105Z,7.65
2022-10-19T12:36:10.902Z,4.65
2022-10-19T12:38:46.120Z,5.95
2022-10-19T12:41:23.533Z,6.28
2022-10-19T12:44:06.859Z,4.03
2022-10-19T12:46:51.285Z,5.47
2022-10-19T12:49:43.962Z,9.15
2022-10-19T12:52:11.614Z,3.22
2022-10-19T12:54:39.918Z,9.48
2022-10-19T12:57:22.911Z,4.22
2022-10-19T12:59:59.700Z,5.32
2022-10-19T13:05:04.059Z,4.60
2022-10-19T13:07:32.486Z,6.38
2022-10-19T13:10:05.402Z,5.18
2022-10-19T13:15:00.962Z,6.00
2022-10-19T13:17:37.329Z,8.10
2022-10-19T13:20:16.612Z,5.38
2022-10-19T13:22:46.740Z,5.30
2022-10-19T13:25:19.724Z,4.13
2022-10-19T13:27:47.921Z,5.40
2022-10-19T13:30:33.566Z,4.80
2022-10-19T13:33:00.655Z,6.75
2022-10-19T13:35:35.242Z,8.88
2022-10-19T13:38:11.415Z,6.57
2022-10-19T13:40:39.591Z,4.05
2022-10-19T13:43:16.834Z,4.38
2022-10-19T13:45:44.812Z,9.02
2022-10-19T13:48:19.335Z,5.30
2022-10-19T13:50:53.619Z,9.40
2022-10-19T13:53:23.842Z,4.13
2022-10-19T13:56:03.991Z,9.00
2022-10-19T13:58:49.603Z,3.97
2022-10-19T14:01:35.058Z,15.30
2022-10-19T14:04:14.627Z,4.50
2022-10-19T14:06:44.343Z,8.95
2022-10-19T14:09:15.130Z,6.78
2022-10-19T14:11:43.623Z,4.57
2022-10-19T14:14:13.702Z,3.95
2022-10-19T14:16:57.224Z,6.18
2022-10-19T14:19:31.519Z,5.35
2022-10-19T14:22:00.613Z,7.78
2022-10-19T14:24:29.355Z,7.32
2022-10-19T14:26:56.991Z,11.00
2022-10-19T14:29:24.101Z,4.22
2022-10-19T14:31:51.234Z,5.80
2022-10-19T14:34:18.338Z,10.30
2022-10-19T14:36:47.236Z,7.10
2022-10-19T14:39:25.175Z,4.45
2022-10-19T14:41:55.650Z,4.32
2022-10-19T14:44:33.450Z,4.82
2022-10-19T14:47:01.771Z,12.13
2022-10-19T14:49:28.906Z,5.72
2022-10-19T14:51:59.730Z,5.20
2022-10-19T14:54:28.916Z,5.90
2022-10-19T14:57:05.996Z,4.75
2022-10-19T14:59:37.113Z,6.47
2022-10-19T15:02:17.822Z,5.63
2022-10-19T15:04:45.035Z,8.30
2022-10-19T15:07:21.400Z,5.15
2022-10-19T15:09:50.739Z,9.85
2022-10-19T15:12:19.423Z,9.52
2022-10-19T15:14:47.051Z,14.02
2022-10-19T15:17:28.082Z,7.07
2022-10-19T15:19:56.094Z,9.90
2022-10-19T15:22:29.015Z,11.45
2022-10-19T15:25:08.201Z,8.52
2022-10-19T15:27:35.496Z,10.30
2022-10-19T15:30:05.814Z,7.53
2022-10-19T15:32:37.375Z,8.10
2022-10-19T15:35:18.030Z,10.03
2022-10-19T15:37:46.093Z,8.75
2022-10-19T15:40:17.866Z,8.30
2022-10-19T15:42:46.870Z,8.10
2022-10-19T15:45:32.573Z,8.07
2022-10-19T15:48:11.868Z,8.05
2022-10-19T15:50:44.061Z,11.55
2022-10-19T15:53:11.160Z,7.90
2022-10-19T15:55:38.206Z,15.95
2022-10-19T15:58:05.336Z,13.20
2022-10-19T16:00:32.721Z,12.88
2022-10-19T16:02:59.867Z,11.40
2022-10-19T16:05:26.950Z,10.05
2022-10-19T16:07:54.451Z,9.68
2022-10-19T16:10:23.000Z,9.48
2022-10-19T16:12:50.082Z,10.38
2022-10-19T16:15:22.350Z,18.50
2022-10-19T16:17:50.874Z,12.75
2022-10-19T16:20:18.315Z,11.95
2022-10-19T16:22:46.377Z,11.00
2022-10-19T16:25:14.179Z,11.88
2022-10-19T16:27:41.306Z,12.38
2022-10-19T16:30:08.917Z,16.30
2022-10-19T16:32:36.119Z,12.35
2022-10-19T16:35:03.256Z,12.23
2022-10-19T16:37:30.448Z,14.57
2022-10-19T16:39:57.631Z,15.05
2022-10-19T16:42:29.636Z,14.27
2022-10-19T16:44:57.722Z,12.38
2022-10-19T16:47:24.839Z,14.77
2022-10-19T16:49:58.189Z,14.32
2022-10-19T16:52:25.312Z,15.18
2022-10-19T16:54:52.420Z,17.70
2022-10-19T16:57:19.716Z,21.50
2022-10-19T16:59:46.888Z,15.18
2022-10-19T17:02:14.437Z,13.50
2022-10-19T17:04:41.594Z,15.73
2022-10-19T17:07:08.690Z,11.52
2022-10-19T17:09:43.430Z,13.05
2022-10-19T17:12:11.469Z,15.95
2022-10-19T17:14:39.755Z,15.05
2022-10-19T17:17:06.949Z,12.07
2022-10-19T17:19:34.149Z,13.95
2022-10-19T17:22:02.854Z,14.73
2022-10-19T17:24:30.254Z,15.10
2022-10-19T17:26:57.495Z,22.48
2022-10-19T17:29:24.721Z,15.85
2022-10-19T17:31:51.876Z,16.67
2022-10-19T17:34:19.184Z,17.83
2022-10-19T17:36:47.124Z,16.88
2022-10-19T17:39:19.008Z,18.35
2022-10-19T17:41:46.985Z,18.60
2022-10-19T17:44:14.239Z,19.30
2022-10-19T17:46:41.362Z,17.60
2022-10-19T17:49:09.764Z,19.15
2022-10-19T17:51:37.317Z,17.10
2022-10-19T17:54:05.766Z,19.38
2022-10-19T17:56:32.946Z,18.40
2022-10-19T17:59:00.240Z,20.67
2022-10-19T18:01:27.682Z,21.92
2022-10-19T18:03:54.845Z,21.55
2022-10-19T18:06:23.704Z,19.33
2022-10-19T18:08:52.455Z,18.90
2022-10-19T18:11:19.538Z,20.35
2022-10-19T18:13:47.085Z,19.15
2022-10-19T18:16:14.151Z,17.65
2022-10-19T18:18:42.682Z,22.08
2022-10-19T18:21:11.468Z,19.63
2022-10-19T18:23:39.124Z,23.73
2022-10-19T18:26:14.399Z,21.08
2022-10-19T18:28:41.607Z,20.63
2022-10-19T18:31:09.225Z,17.05
2022-10-19T18:33:36.692Z,20.70
2022-10-19T18:36:04.503Z,17.55
2022-10-19T18:38:31.797Z,22.25
2022-10-19T18:41:05.962Z,18.23
2022-10-19T18:43:33.131Z,19.98
2022-10-19T18:46:00.628Z,22.10
2022-10-19T18:48:29.062Z,20.10
2022-10-19T18:50:56.637Z,18.00
2022-10-19T18:53:23.723Z,19.80
2022-10-19T18:55:57.983Z,17.77
2022-10-19T18:58:25.520Z,19.75
2022-10-19T19:01:02.725Z,23.33
2022-10-19T19:03:29.866Z,19.02
2022-10-19T19:06:00.700Z,20.02
2022-10-19T19:08:28.522Z,23.30
2022-10-19T19:10:55.926Z,21.98
2022-10-19T19:13:23.164Z,20.67
2022-10-19T19:15:57.594Z,21.58
2022-10-19T19:18:24.680Z,20.92
2022-10-19T19:20:51.893Z,22.52
2022-10-19T19:23:19.098Z,19.45
2022-10-19T19:25:46.325Z,22.52
2022-10-19T19:28:13.458Z,18.85
2022-10-19T19:30:44.244Z,20.98
2022-10-19T19:33:11.776Z,21.50
2022-10-19T19:35:45.746Z,20.20
2022-10-19T19:38:13.987Z,18.52
2022-10-19T19:40:41.904Z,19.92
2022-10-19T19:43:12.415Z,20.02
2022-10-19T19:45:39.791Z,18.35
2022-10-19T19:48:08.016Z,16.83
2022-10-19T19:50:35.423Z,15.98
2022-10-19T19:53:02.860Z,20.10
2022-10-19T19:55:33.093Z,15.57
2022-10-19T19:58:02.390Z,18.08
2022-10-19T20:00:29.779Z,19.80
2022-10-19T20:02:58.039Z,20.90
2022-10-19T20:05:25.396Z,28.50
2022-10-19T20:07:52.762Z,17.63
2022-10-19T20:10:19.938Z,14.98
2022-10-19T20:12:47.771Z,16.83
2022-10-19T20:15:16.251Z,14.70
2022-10-19T20:17:43.410Z,16.13
2022-10-19T20:20:11.389Z,16.30
2022-10-19T20:22:38.895Z,15.65
2022-10-19T20:25:06.344Z,18.15
2022-10-19T20:27:36.681Z,14.95
2022-10-19T20:30:04.543Z,14.57
2022-10-19T20:32:31.711Z,18.23
2022-10-19T20:34:58.913Z,19.45
2022-10-19T20:37:26.532Z,15.90
2022-10-19T20:39:53.633Z,14.95
2022-10-19T20:42:21.661Z,14.50
2022-10-19T20:44:48.836Z,15.57
2022-10-19T20:47:16.119Z,17.98
2022-10-19T20:49:43.185Z,16.25
2022-10-19T20:52:10.257Z,17.42
2022-10-19T20:54:37.601Z,17.80
2022-10-19T20:57:04.684Z,14.20
2022-10-19T20:59:33.258Z,17.65
2022-10-19T21:02:00.433Z,13.88
2022-10-19T21:04:27.598Z,15.23
2022-10-19T21:06:54.699Z,18.65
2022-10-19T21:09:23.158Z,16.95
2022-10-19T21:11:51.258Z,15.02
2022-10-19T21:14:28.072Z,15.40
2022-10-19T21:16:57.033Z,15.02
2022-10-19T21:19:25.354Z,18.55
2022-10-19T21:21:55.378Z,17.33
2022-10-19T21:24:26.464Z,14.55
2022-10-19T21:26:53.836Z,18.75
2022-10-19T21:29:21.133Z,19.98
2022-10-19T21:31:50.891Z,17.48
2022-10-19T21:34:18.991Z,17.00
2022-10-19T21:36:46.285Z,18.30
2022-10-19T21:39:13.416Z,15.13
2022-10-19T21:41:40.484Z,16.70
2022-10-19T21:44:07.618Z,20.45
2022-10-19T21:46:34.697Z,17.92
2022-10-19T21:49:01.823Z,18.35
2022-10-19T21:51:45.446Z,18.15
2022-10-19T21:54:14.183Z,19.40
2022-10-19T21:56:41.289Z,18.65
2022-10-19T21:59:08.368Z,24.65
2022-10-19T22:01:38.673Z,15.57
2022-10-19T22:04:09.973Z,20.40
2022-10-19T22:06:37.184Z,16.60
2022-10-19T22:09:05.822Z,18.95
2022-10-19T22:11:32.962Z,20.88
2022-10-19T22:14:01.018Z,21.30
2022-10-19T22:16:28.689Z,17.88
2022-10-19T22:18:56.384Z,25.17
2022-10-19T22:21:25.378Z,21.95
2022-10-19T22:23:53.466Z,17.85
2022-10-19T22:26:43.882Z,20.98
2022-10-19T22:29:11.004Z,20.38
2022-10-19T22:31:38.490Z,22.75
2022-10-19T22:34:06.837Z,20.63
2022-10-19T22:36:33.900Z,24.67
2022-10-19T22:39:01.036Z,21.20
2022-10-19T22:41:28.173Z,24.98
2022-10-19T22:43:55.234Z,22.55
2022-10-19T22:46:22.322Z,24.13
2022-10-19T22:48:49.401Z,21.08
2022-10-19T22:51:16.495Z,22.63
2022-10-19T22:53:43.575Z,22.17
2022-10-19T22:56:13.957Z,20.77
2022-10-19T22:58:41.041Z,19.00
2022-10-19T23:01:09.409Z,21.42
2022-10-19T23:03:39.234Z,21.67
2022-10-19T23:06:07.351Z,21.52
2022-10-19T23:08:34.449Z,20.67
2022-10-19T23:11:01.543Z,21.17
2022-10-19T23:13:28.726Z,26.10
2022-10-19T23:15:55.877Z,20.75
2022-10-19T23:18:23.011Z,17.77
2022-10-19T23:21:00.577Z,23.55
2022-10-19T23:23:28.182Z,21.85
2022-10-19T23:26:02.445Z,19.88
2022-10-19T23:28:30.097Z,19.77
2022-10-19T23:30:58.613Z,22.50
2022-10-19T23:33:26.650Z,19.13
2022-10-19T23:35:53.766Z,19.33
2022-10-19T23:38:20.899Z,20.42
2022-10-19T23:40:47.971Z,21.70
2022-10-19T23:43:15.066Z,21.52
2022-10-19T23:45:42.134Z,21.50
2022-10-19T23:48:09.212Z,18.63
2022-10-19T23:50:36.311Z,20.38
2022-10-19T23:53:03.422Z,21.23
2022-10-19T23:55:30.512Z,21.30
2022-10-19T23:57:57.618Z,22.77
